Time;durP1;ratioP1;P1;durP2;ratioP2;P2;SDS_P1;SDS_P2;PMS_P1;PMS_P2;Temp;Humidity;BMP_temperature;BMP_pressure;BME280_temperature;BME280_humidity;BME280_pressure;Samples;Min_cycle;Max_cycle;Signal;HPM_P1;HPM_P2
2023/07/02 00:00:27;;;;;;;;;34.20;32.20;;;;;;;;2037240;27;3572475;-77
2023/07/02 00:01:39;;;;;;;;;36.40;29.40;;;;;;;;2051366;27;3600203;-77
2023/07/02 00:02:51;;;;;;;;;33.20;27.00;;;;;;;;2037281;27;3569481;-77
2023/07/02 00:04:03;;;;;;;;;36.20;32.00;;;;;;;;2050674;27;3580440;-78
2023/07/02 00:05:17;;;;;;;;;30.40;22.20;;;;;;;;2035780;27;3583542;-77
2023/07/02 00:06:27;;;;;;;;;32.00;28.00;;;;;;;;2020457;27;2862836;-77
2023/07/02 00:07:39;;;;;;;;;31.20;24.60;;;;;;;;2037221;27;3587703;-77
2023/07/02 00:08:51;;;;;;;;;40.80;32.00;;;;;;;;2042812;27;3601297;-77
2023/07/02 00:10:03;;;;;;;;;32.40;26.40;;;;;;;;2045138;27;3593976;-77
2023/07/02 00:11:15;;;;;;;;;38.00;32.80;;;;;;;;2037425;27;3599173;-77
2023/07/02 00:12:27;;;;;;;;;30.20;24.40;;;;;;;;2030202;27;3587743;-78
2023/07/02 00:13:39;;;;;;;;;35.80;27.80;;;;;;;;2044471;27;3609623;-77
2023/07/02 00:14:52;;;;;;;;;39.60;32.60;;;;;;;;2036212;27;3586649;-77
2023/07/02 00:16:04;;;;;;;;;40.67;32.67;;;;;;;;2009463;27;2853358;-77
2023/07/02 00:17:14;;;;;;;;;37.50;31.50;;;;;;;;2035219;27;2851282;-78
2023/07/02 00:18:33;;;;;;;;;34.20;28.00;;;;;;;;2043052;27;3613852;-78
2023/07/02 00:19:46;;;;;;;;;34.50;27.50;;;;;;;;2002961;27;2869101;-76
2023/07/02 00:20:56;;;;;;;;;40.50;32.00;;;;;;;;2006153;27;2856546;-77
2023/07/02 00:22:09;;;;;;;;;39.00;31.20;;;;;;;;2040069;27;3593945;-77
2023/07/02 00:23:21;;;;;;;;;37.20;32.60;;;;;;;;2048731;27;3582862;-76
2023/07/02 00:24:31;;;;;;;;;42.50;31.50;;;;;;;;2018642;27;2853342;-77
2023/07/02 00:25:43;;;;;;;;;41.40;31.80;;;;;;;;2046061;27;3605419;-77
2023/07/02 00:26:55;;;;;;;;;29.20;26.60;;;;;;;;2046483;27;3584597;-76
2023/07/02 00:28:07;;;;;;;;;36.60;29.60;;;;;;;;2044681;27;3578345;-77
2023/07/02 00:29:19;;;;;;;;;42.80;32.40;;;;;;;;2068810;27;3603316;-77
2023/07/02 00:30:31;;;;;;;;;34.40;28.40;;;;;;;;2043651;27;3614773;-79
2023/07/02 00:31:43;;;;;;;;;41.60;32.60;;;;;;;;2032121;27;3588738;-78
2023/07/02 00:32:55;;;;;;;;;34.20;30.00;;;;;;;;2034683;27;3590855;-81
2023/07/02 00:34:07;;;;;;;;;40.20;29.40;;;;;;;;2021834;27;3618997;-79
2023/07/02 00:35:19;;;;;;;;;37.80;27.60;;;;;;;;2041021;27;3594983;-79
2023/07/02 00:36:31;;;;;;;;;41.40;31.00;;;;;;;;2045471;27;3603692;-78
2023/07/02 00:37:43;;;;;;;;;36.80;30.20;;;;;;;;2039460;27;3599223;-78
2023/07/02 00:38:55;;;;;;;;;36.00;30.40;;;;;;;;2044251;27;3603359;-78
2023/07/02 00:40:08;;;;;;;;;38.20;30.20;;;;;;;;2021813;27;3591909;-78
2023/07/02 00:41:18;;;;;;;;;42.00;32.00;;;;;;;;2017039;27;2870052;-79
2023/07/02 00:42:30;;;;;;;;;37.20;27.20;;;;;;;;2044144;27;3585611;-79
2023/07/02 00:43:45;;;;;;;;;39.20;30.20;;;;;;;;2030817;27;3623127;-79
2023/07/02 00:45:02;;;;;;;;;40.00;31.33;;;;;;;;2008977;27;3599209;-79
2023/07/02 00:46:13;;;;;;;;;34.50;29.50;;;;;;;;2016680;27;2864895;-79
2023/07/02 00:47:25;;;;;;;;;45.20;32.80;;;;;;;;2043559;27;3587731;-79
2023/07/02 00:48:38;;;;;;;;;42.40;29.20;;;;;;;;2068620;27;3602301;-79
2023/07/02 00:49:48;;;;;;;;;32.00;25.00;;;;;;;;2018400;27;2861703;-79
2023/07/02 00:51:00;;;;;;;;;31.20;28.40;;;;;;;;2045289;27;3596563;-80
2023/07/02 00:52:13;;;;;;;;;39.60;28.20;;;;;;;;2040203;27;3607833;-79
2023/07/02 00:53:25;;;;;;;;;41.20;32.60;;;;;;;;2033273;27;3583565;-79
2023/07/02 00:54:36;;;;;;;;;38.40;32.20;;;;;;;;2027648;27;3595019;-79
2023/07/02 00:55:48;;;;;;;;;42.40;32.40;;;;;;;;2033500;27;3609562;-79
2023/07/02 00:57:03;;;;;;;;;35.20;29.20;;;;;;;;2044664;27;3602277;-79
2023/07/02 00:58:15;;;;;;;;;31.50;29.00;;;;;;;;2018857;27;2854456;-82
2023/07/02 00:59:26;;;;;;;;;32.50;28.00;;;;;;;;2018865;27;2851282;-82
2023/07/02 01:00:37;;;;;;;;;33.00;29.00;;;;;;;;2039633;27;3593985;-82
2023/07/02 01:01:49;;;;;;;;;31.00;24.80;;;;;;;;2036283;27;3589775;-81
2023/07/02 01:03:01;;;;;;;;;36.80;30.20;;;;;;;;2037110;27;3614216;-81
2023/07/02 01:04:13;;;;;;;;;31.60;26.40;;;;;;;;2035211;27;3602354;-80
2023/07/02 01:05:32;;;;;;;;;43.00;33.40;;;;;;;;2045025;27;3585647;-80
2023/07/02 01:06:42;;;;;;;;;43.50;32.00;;;;;;;;2014484;27;2864836;-80
2023/07/02 01:07:54;;;;;;;;;44.20;31.80;;;;;;;;2032068;27;3604374;-80
2023/07/02 01:09:07;;;;;;;;;34.00;31.00;;;;;;;;2066910;27;3582539;-80
2023/07/02 01:10:18;;;;;;;;;35.33;29.67;;;;;;;;2018617;27;2867984;-82
2023/07/02 01:11:31;;;;;;;;;24.50;20.50;;;;;;;;2041731;27;2838775;-83
2023/07/02 01:12:41;;;;;;;;;39.50;30.00;;;;;;;;2025182;27;2852320;-83
2023/07/02 01:13:56;;;;;;;;;38.40;28.40;;;;;;;;2035623;27;3616873;-82
2023/07/02 01:15:08;;;;;;;;;37.33;31.00;;;;;;;;2008124;27;3593981;-82
2023/07/02 01:16:20;;;;;;;;;37.60;28.80;;;;;;;;2031557;27;3624149;-82
2023/07/02 01:17:39;;;;;;;;;43.40;33.60;;;;;;;;2029170;27;3592904;-83
2023/07/02 01:18:54;;;;;;;;;35.50;31.00;;;;;;;;2008236;27;2848181;-84
2023/07/02 01:20:08;;;;;;;;;31.00;27.00;;;;;;;;2008390;27;2852363;-84
2023/07/02 01:21:20;;;;;;;;;32.67;26.00;;;;;;;;2007040;27;3593985;-80
2023/07/02 01:22:31;;;;;;;;;36.00;30.00;;;;;;;;2017057;27;2864844;-81
2023/07/02 01:23:43;;;;;;;;;38.60;33.60;;;;;;;;2032832;27;3579375;-81
2023/07/02 01:24:55;;;;;;;;;47.40;32.20;;;;;;;;2052812;27;3615854;-80
2023/07/02 01:26:06;;;;;;;;;30.80;27.20;;;;;;;;2034272;27;3595010;-81
2023/07/02 01:27:19;;;;;;;;;37.00;32.00;;;;;;;;2041239;27;3601263;-80
2023/07/02 01:28:35;;;;;;;;;35.50;29.00;;;;;;;;2018492;27;2840850;-80
2023/07/02 01:29:46;;;;;;;;;34.00;27.50;;;;;;;;2012375;27;2845053;-79
2023/07/02 01:30:57;;;;;;;;;40.00;30.50;;;;;;;;2018616;27;2875272;-79
2023/07/02 01:32:09;;;;;;;;;45.20;32.00;;;;;;;;2041477;27;3615839;-79
2023/07/02 01:33:21;;;;;;;;;34.20;30.40;;;;;;;;2041776;27;3601221;-80
2023/07/02 01:34:32;;;;;;;;;35.00;30.50;;;;;;;;2010032;27;2857540;-81
2023/07/02 01:35:44;;;;;;;;;40.60;30.40;;;;;;;;2028140;27;3617920;-79
2023/07/02 01:36:56;;;;;;;;;38.00;31.00;;;;;;;;2028756;27;3597067;-79
2023/07/02 01:38:08;;;;;;;;;39.80;26.40;;;;;;;;2035458;27;3607506;-79
2023/07/02 01:39:20;;;;;;;;;41.20;31.20;;;;;;;;2038735;27;3606501;-79
2023/07/02 01:40:32;;;;;;;;;36.00;32.00;;;;;;;;2045356;27;3587736;-79
2023/07/02 01:41:45;;;;;;;;;32.80;29.00;;;;;;;;2035682;27;3588014;-79
2023/07/02 01:42:56;;;;;;;;;40.00;30.67;;;;;;;;2011055;27;2882627;-79
2023/07/02 01:44:07;;;;;;;;;35.33;26.67;;;;;;;;2034341;27;2866899;-80
2023/07/02 01:45:18;;;;;;;;;39.67;28.00;;;;;;;;2040927;27;2873168;-79
2023/07/02 01:46:29;;;;;;;;;35.00;29.00;;;;;;;;2042125;27;2835653;-80
2023/07/02 01:47:41;;;;;;;;;40.00;30.20;;;;;;;;2046105;27;3630403;-80
2023/07/02 01:48:53;;;;;;;;;37.20;27.40;;;;;;;;2042469;27;3615835;-80
2023/07/02 01:50:06;;;;;;;;;37.60;30.40;;;;;;;;2042355;27;3590157;-80
2023/07/02 01:51:16;;;;;;;;;32.00;26.00;;;;;;;;2017388;27;2863075;-80
2023/07/02 01:52:32;;;;;;;;;41.60;30.20;;;;;;;;2045017;27;3619724;-80
2023/07/02 01:53:43;;;;;;;;;33.00;28.00;;;;;;;;2016502;27;2850214;-79
2023/07/02 01:54:55;;;;;;;;;32.40;28.00;;;;;;;;2034836;27;3583532;-78
2023/07/02 01:56:07;;;;;;;;;31.00;25.00;;;;;;;;2043359;27;3581799;-81
2023/07/02 01:57:19;;;;;;;;;32.00;28.20;;;;;;;;2039177;27;3583560;-81
2023/07/02 01:58:30;;;;;;;;;42.80;30.20;;;;;;;;2041778;27;3583010;-81
2023/07/02 01:59:43;;;;;;;;;34.00;27.60;;;;;;;;2043854;27;3612698;-82
2023/07/02 02:00:54;;;;;;;;;34.40;27.60;;;;;;;;2043705;27;3587718;-81
2023/07/02 02:02:07;;;;;;;;;40.80;28.20;;;;;;;;2042714;27;3601249;-83
2023/07/02 02:03:21;;;;;;;;;37.75;27.88;;;;;;;;2034686;27;3612705;-82
2023/07/02 02:04:32;;;;;;;;;40.50;26.50;;;;;;;;2038922;27;2878369;-82
2023/07/02 02:05:44;;;;;;;;;31.60;19.00;;;;;;;;2041423;27;3558580;-81
2023/07/02 02:06:56;;;;;;;;;34.00;25.00;;;;;;;;2066199;27;3614782;-84
2023/07/02 02:08:08;;;;;;;;;31.00;23.60;;;;;;;;2044548;27;3602302;-83
2023/07/02 02:09:21;;;;;;;;;31.00;25.60;;;;;;;;2043691;27;3579351;-83
2023/07/02 02:10:32;;;;;;;;;41.40;30.20;;;;;;;;2014824;27;3623174;-84
2023/07/02 02:11:46;;;;;;;;;32.60;27.60;;;;;;;;2029425;27;3599165;-84
2023/07/02 02:12:56;;;;;;;;;34.00;28.50;;;;;;;;2010703;27;2863794;-84
2023/07/02 02:14:08;;;;;;;;;41.60;31.20;;;;;;;;2033829;27;3606527;-83
2023/07/02 02:15:20;;;;;;;;;47.00;31.00;;;;;;;;2027568;27;3631461;-83
2023/07/02 02:16:33;;;;;;;;;33.40;24.00;;;;;;;;2043054;27;3589767;-80
2023/07/02 02:17:45;;;;;;;;;37.00;28.50;;;;;;;;2018245;27;2861679;-80
2023/07/02 02:18:55;;;;;;;;;28.00;22.00;;;;;;;;2010807;27;2854391;-81
2023/07/02 02:20:08;;;;;;;;;40.20;27.00;;;;;;;;2036312;27;3626258;-81
2023/07/02 02:21:20;;;;;;;;;33.20;26.00;;;;;;;;2024649;27;3596111;-81
2023/07/02 02:22:31;;;;;;;;;37.40;27.60;;;;;;;;2009277;28;3622061;-81
2023/07/02 02:23:44;;;;;;;;;37.43;31.29;;;;;;;;2028298;27;3592958;-81
2023/07/02 02:24:56;;;;;;;;;34.20;29.20;;;;;;;;2043941;27;3597090;-81
2023/07/02 02:26:08;;;;;;;;;28.40;27.20;;;;;;;;2045843;27;3579391;-81
2023/07/02 02:27:22;;;;;;;;;36.00;26.50;;;;;;;;2030637;27;3628357;-82
2023/07/02 02:28:34;;;;;;;;;38.80;28.40;;;;;;;;2024451;27;3623103;-82
2023/07/02 02:29:46;;;;;;;;;30.80;21.80;;;;;;;;2034716;27;3592903;-82
2023/07/02 02:30:58;;;;;;;;;34.20;28.00;;;;;;;;2039664;27;3600223;-80
2023/07/02 02:32:09;;;;;;;;;29.40;27.20;;;;;;;;2027780;27;2837848;-79
2023/07/02 02:33:21;;;;;;;;;34.60;26.00;;;;;;;;2061576;27;3606462;-79
2023/07/02 02:34:32;;;;;;;;;30.80;23.40;;;;;;;;2022305;27;3587691;-79
2023/07/02 02:35:45;;;;;;;;;34.60;27.80;;;;;;;;2044887;27;3600245;-79
2023/07/02 02:36:56;;;;;;;;;30.00;26.33;;;;;;;;2016454;27;3581528;-79
2023/07/02 02:38:08;;;;;;;;;28.60;24.80;;;;;;;;2045450;27;3583525;-78
2023/07/02 02:39:20;;;;;;;;;38.60;29.40;;;;;;;;2042971;27;3604374;-79
2023/07/02 02:40:34;;;;;;;;;31.63;26.25;;;;;;;;2042176;27;3581526;-79
2023/07/02 02:41:45;;;;;;;;;28.00;25.00;;;;;;;;2041106;27;2842954;-79
2023/07/02 02:42:57;;;;;;;;;43.40;28.40;;;;;;;;2040394;27;3623128;-79
2023/07/02 02:44:08;;;;;;;;;25.80;22.20;;;;;;;;2026102;27;2841884;-79
2023/07/02 02:45:19;;;;;;;;;36.00;29.00;;;;;;;;2064676;27;3584591;-79
2023/07/02 02:46:31;;;;;;;;;34.00;25.80;;;;;;;;2069074;27;3609578;-79
2023/07/02 02:47:45;;;;;;;;;34.80;25.40;;;;;;;;2042619;27;3594975;-79
2023/07/02 02:48:56;;;;;;;;;39.67;27.33;;;;;;;;2016272;27;3606493;-79
2023/07/02 02:50:09;;;;;;;;;28.00;24.00;;;;;;;;2033125;27;3587755;-79
2023/07/02 02:51:20;;;;;;;;;29.00;24.00;;;;;;;;2019731;27;2851644;-79
2023/07/02 02:52:31;;;;;;;;;40.20;29.80;;;;;;;;2036199;27;3578316;-79
2023/07/02 02:53:43;;;;;;;;;31.40;26.60;;;;;;;;2054860;27;3586654;-79
2023/07/02 02:54:55;;;;;;;;;36.80;25.40;;;;;;;;2037062;27;3596500;-77
2023/07/02 02:56:07;;;;;;;;;29.60;23.00;;;;;;;;2045986;27;3575224;-79
2023/07/02 02:57:19;;;;;;;;;31.20;23.40;;;;;;;;2044296;27;3602311;-79
2023/07/02 02:58:31;;;;;;;;;35.00;27.20;;;;;;;;2041935;27;3615864;-79
2023/07/02 02:59:43;;;;;;;;;30.60;24.00;;;;;;;;2037434;27;3593940;-79
2023/07/02 03:00:57;;;;;;;;;36.88;27.25;;;;;;;;2038446;27;3598119;-78
2023/07/02 03:02:07;;;;;;;;;32.50;27.00;;;;;;;;2039560;27;2847502;-78
2023/07/02 03:03:20;;;;;;;;;23.00;22.60;;;;;;;;2041240;27;3579395;-79
2023/07/02 03:04:31;;;;;;;;;31.00;25.33;;;;;;;;2046397;27;3587735;-78
2023/07/02 03:05:45;;;;;;;;;29.60;22.80;;;;;;;;2042010;27;3597081;-79
2023/07/02 03:06:56;;;;;;;;;33.67;22.33;;;;;;;;2016165;27;3611731;-79
2023/07/02 03:08:08;;;;;;;;;26.00;22.60;;;;;;;;2034033;27;3583545;-81
2023/07/02 03:09:20;;;;;;;;;32.80;26.00;;;;;;;;2044778;27;3593993;-79
2023/07/02 03:10:33;;;;;;;;;30.88;24.88;;;;;;;;2039715;27;3609573;-79
2023/07/02 03:11:46;;;;;;;;;33.60;26.60;;;;;;;;2068872;27;3604435;-79
2023/07/02 03:12:57;;;;;;;;;36.00;27.00;;;;;;;;2021529;27;3608551;-81
2023/07/02 03:14:09;;;;;;;;;31.20;26.60;;;;;;;;2037984;27;3593450;-80
2023/07/02 03:15:22;;;;;;;;;28.86;23.71;;;;;;;;2033239;27;3589829;-81
2023/07/02 03:16:34;;;;;;;;;31.80;24.80;;;;;;;;2033766;27;3602293;-81
2023/07/02 03:17:46;;;;;;;;;28.80;25.80;;;;;;;;2042680;27;3568949;-81
2023/07/02 03:18:59;;;;;;;;;30.20;23.60;;;;;;;;2027593;27;3585620;-81
2023/07/02 03:20:10;;;;;;;;;34.60;24.60;;;;;;;;2021052;27;3604424;-80
2023/07/02 03:21:22;;;;;;;;;29.33;22.33;;;;;;;;2034149;27;3596048;-80
2023/07/02 03:22:34;;;;;;;;;37.40;26.60;;;;;;;;2045211;27;3602259;-81
2023/07/02 03:23:46;;;;;;;;;26.60;23.20;;;;;;;;2045802;27;3581457;-81
2023/07/02 03:24:58;;;;;;;;;32.20;27.00;;;;;;;;2044265;27;3587716;-81
2023/07/02 03:26:10;;;;;;;;;41.40;28.40;;;;;;;;2044322;27;3602317;-81
2023/07/02 03:27:22;;;;;;;;;27.40;24.80;;;;;;;;2044445;27;3569968;-80
2023/07/02 03:28:34;;;;;;;;;33.60;25.80;;;;;;;;2068470;27;3604346;-81
2023/07/02 03:29:46;;;;;;;;;33.00;27.80;;;;;;;;2019180;27;3588798;-81
2023/07/02 03:30:58;;;;;;;;;26.00;23.00;;;;;;;;2041829;27;3579382;-81
2023/07/02 03:32:09;;;;;;;;;30.40;25.60;;;;;;;;2050041;27;2838226;-81
2023/07/02 03:33:20;;;;;;;;;32.20;28.20;;;;;;;;2041083;27;3581485;-81
2023/07/02 03:34:32;;;;;;;;;30.60;23.20;;;;;;;;2068712;27;3591994;-82
2023/07/02 03:35:44;;;;;;;;;30.40;22.60;;;;;;;;2045005;27;3597054;-81
2023/07/02 03:36:56;;;;;;;;;31.60;22.20;;;;;;;;2041873;27;3598185;-79
2023/07/02 03:38:08;;;;;;;;;30.20;26.80;;;;;;;;2037172;27;3589801;-79
2023/07/02 03:39:19;;;;;;;;;35.60;25.80;;;;;;;;2014109;27;2843032;-79
2023/07/02 03:40:31;;;;;;;;;20.40;17.20;;;;;;;;2059722;27;3545531;-79
2023/07/02 03:41:43;;;;;;;;;34.60;28.00;;;;;;;;2054096;27;3590840;-80
2023/07/02 03:42:55;;;;;;;;;28.40;19.20;;;;;;;;2014186;27;3565817;-80
2023/07/02 03:44:08;;;;;;;;;32.88;24.38;;;;;;;;2055038;27;3614865;-79
2023/07/02 03:45:20;;;;;;;;;30.40;24.60;;;;;;;;2044130;27;3583568;-78
2023/07/02 03:46:32;;;;;;;;;30.80;23.80;;;;;;;;2036005;27;3591853;-78
2023/07/02 03:47:43;;;;;;;;;25.20;22.20;;;;;;;;2011047;27;2839976;-78
2023/07/02 03:48:53;;;;;;;;;29.50;24.00;;;;;;;;2027919;27;2506500;-78
2023/07/02 03:50:05;;;;;;;;;30.00;21.60;;;;;;;;2044565;27;3596032;-79
2023/07/02 03:51:17;;;;;;;;;28.40;23.00;;;;;;;;2064459;27;3587702;-78
2023/07/02 03:52:30;;;;;;;;;29.57;22.57;;;;;;;;2038540;27;3588737;-80
2023/07/02 03:53:42;;;;;;;;;30.80;26.60;;;;;;;;2036807;27;3587684;-78
2023/07/02 03:54:54;;;;;;;;;28.20;23.00;;;;;;;;2057780;27;3570068;-77
2023/07/02 03:56:06;;;;;;;;;33.60;24.40;;;;;;;;2027119;27;3613108;-80
2023/07/02 03:57:18;;;;;;;;;37.00;26.60;;;;;;;;2042128;27;3608018;-78
2023/07/02 03:58:30;;;;;;;;;31.80;26.00;;;;;;;;2044440;27;3591913;-79
2023/07/02 03:59:42;;;;;;;;;29.40;21.40;;;;;;;;2045503;27;3596017;-80
2023/07/02 04:00:54;;;;;;;;;27.00;22.40;;;;;;;;2044388;27;3585593;-80
2023/07/02 04:02:06;;;;;;;;;29.60;24.60;;;;;;;;2044839;27;3581465;-79
2023/07/02 04:03:18;;;;;;;;;29.40;23.40;;;;;;;;2069385;27;3592929;-79
2023/07/02 04:04:30;;;;;;;;;27.60;22.40;;;;;;;;2042829;27;3587733;-78
2023/07/02 04:05:42;;;;;;;;;26.20;22.00;;;;;;;;2042314;27;3584551;-78
2023/07/02 04:06:54;;;;;;;;;29.00;22.00;;;;;;;;2025166;27;3593929;-78
2023/07/02 04:08:06;;;;;;;;;29.80;22.40;;;;;;;;2045007;27;3597066;-78
2023/07/02 04:09:19;;;;;;;;;24.86;20.86;;;;;;;;2040648;27;3585671;-78
2023/07/02 04:10:30;;;;;;;;;24.00;21.00;;;;;;;;2008727;27;2846122;-78
2023/07/02 04:11:42;;;;;;;;;32.60;24.00;;;;;;;;2033499;27;3602274;-79
2023/07/02 04:12:53;;;;;;;;;36.00;23.20;;;;;;;;2060705;27;3591885;-79
2023/07/02 04:14:06;;;;;;;;;28.00;21.80;;;;;;;;2038311;27;3591854;-79
2023/07/02 04:15:17;;;;;;;;;28.80;22.40;;;;;;;;2034913;27;3597098;-79
2023/07/02 04:16:31;;;;;;;;;34.13;27.50;;;;;;;;2036911;27;3604474;-79
2023/07/02 04:17:43;;;;;;;;;24.40;21.40;;;;;;;;2043684;27;3581449;-79
2023/07/02 04:18:57;;;;;;;;;29.38;22.75;;;;;;;;2040293;27;3581449;-79
2023/07/02 04:20:07;;;;;;;;;28.00;24.50;;;;;;;;2030238;27;2843053;-79
2023/07/02 04:21:19;;;;;;;;;25.80;22.20;;;;;;;;2015042;27;3590832;-79
2023/07/02 04:22:31;;;;;;;;;26.20;24.40;;;;;;;;2052512;27;3580443;-79
2023/07/02 04:23:45;;;;;;;;;32.50;24.00;;;;;;;;2040353;27;3603343;-79
2023/07/02 04:24:57;;;;;;;;;28.80;22.40;;;;;;;;2043194;27;3585612;-79
2023/07/02 04:26:08;;;;;;;;;25.60;23.00;;;;;;;;2032293;27;3573116;-79
2023/07/02 04:27:20;;;;;;;;;36.60;25.00;;;;;;;;2027920;27;3613777;-79
2023/07/02 04:28:31;;;;;;;;;26.00;21.20;;;;;;;;2017970;27;2843320;-79
2023/07/02 04:29:43;;;;;;;;;27.33;25.67;;;;;;;;2026600;27;3585593;-79
2023/07/02 04:30:55;;;;;;;;;30.00;25.80;;;;;;;;2006149;27;3577274;-79
2023/07/02 04:32:07;;;;;;;;;26.20;22.60;;;;;;;;2036331;27;3585610;-79
2023/07/02 04:33:19;;;;;;;;;31.20;27.00;;;;;;;;2027848;27;3585621;-79
2023/07/02 04:34:31;;;;;;;;;32.00;26.80;;;;;;;;2042503;27;3585644;-81
2023/07/02 04:35:42;;;;;;;;;31.40;27.20;;;;;;;;2012685;27;2845572;-79
2023/07/02 04:36:53;;;;;;;;;26.67;21.33;;;;;;;;2034283;27;2847092;-79
2023/07/02 04:38:05;;;;;;;;;26.00;19.00;;;;;;;;2038652;27;3556470;-79
2023/07/02 04:39:17;;;;;;;;;29.33;24.67;;;;;;;;2054768;27;3581548;-81
2023/07/02 04:40:28;;;;;;;;;26.40;23.20;;;;;;;;2025815;27;2839805;-81
2023/07/02 04:41:39;;;;;;;;;22.40;19.40;;;;;;;;2064969;27;2816996;-81
2023/07/02 04:42:57;;;;;;;;;28.50;21.50;;;;;;;;2038577;27;2852678;-81
2023/07/02 04:44:07;;;;;;;;;30.50;23.00;;;;;;;;2011412;27;2833603;-81
2023/07/02 04:45:19;;;;;;;;;4.25;0.00;;;;;;;;2042397;27;2741990;-81
2023/07/02 04:46:30;;;;;;;;;24.33;21.67;;;;;;;;2040841;27;3570001;-81
2023/07/02 04:47:44;;;;;;;;;27.40;24.20;;;;;;;;2050274;27;2841971;-81
2023/07/02 04:48:55;;;;;;;;;27.00;21.50;;;;;;;;2032904;27;2854446;-81
2023/07/02 04:50:07;;;;;;;;;27.80;20.60;;;;;;;;2034526;27;3585597;-81
2023/07/02 04:51:20;;;;;;;;;26.80;20.20;;;;;;;;2057117;27;3585638;-81
2023/07/02 04:52:31;;;;;;;;;23.00;20.00;;;;;;;;2011074;27;2829424;-81
2023/07/02 04:53:42;;;;;;;;;26.00;21.00;;;;;;;;2026668;27;3579398;-81
2023/07/02 04:54:55;;;;;;;;;28.20;20.80;;;;;;;;2030682;27;3596547;-80
2023/07/02 04:56:06;;;;;;;;;26.00;22.00;;;;;;;;2000961;27;2839824;-81
2023/07/02 04:57:18;;;;;;;;;27.40;23.20;;;;;;;;2034038;27;3587723;-80
2023/07/02 04:58:30;;;;;;;;;25.80;20.80;;;;;;;;2037246;27;3577305;-81
2023/07/02 04:59:42;;;;;;;;;30.20;22.80;;;;;;;;2056111;27;3585637;-81
2023/07/02 05:00:54;;;;;;;;;28.40;23.40;;;;;;;;2024863;27;3582491;-82
2023/07/02 05:02:05;;;;;;;;;27.80;23.00;;;;;;;;2033054;27;3575185;-81
2023/07/02 05:03:17;;;;;;;;;30.20;23.00;;;;;;;;2031991;27;3591890;-82
2023/07/02 05:04:30;;;;;;;;;23.00;17.00;;;;;;;;2030222;27;3552325;-82
2023/07/02 05:05:42;;;;;;;;;26.60;23.80;;;;;;;;2067822;27;3572091;-81
2023/07/02 05:06:56;;;;;;;;;31.88;22.25;;;;;;;;2063653;27;3611691;-80
2023/07/02 05:08:07;;;;;;;;;21.20;18.60;;;;;;;;2023016;27;2831464;-82
2023/07/02 05:09:19;;;;;;;;;28.40;20.00;;;;;;;;2027279;27;3589807;-80
2023/07/02 05:10:31;;;;;;;;;35.33;23.33;;;;;;;;2035475;27;2876282;-79
2023/07/02 05:11:41;;;;;;;;;29.00;21.00;;;;;;;;2043491;27;2858590;-81
2023/07/02 05:12:53;;;;;;;;;26.20;21.00;;;;;;;;2040151;27;3586648;-80
2023/07/02 05:14:05;;;;;;;;;26.20;22.80;;;;;;;;2036008;27;3566886;-80
2023/07/02 05:15:17;;;;;;;;;31.00;21.60;;;;;;;;2035928;27;3609593;-80
2023/07/02 05:16:28;;;;;;;;;27.60;23.00;;;;;;;;2024046;27;2837719;-81
2023/07/02 05:17:40;;;;;;;;;27.20;21.00;;;;;;;;2062851;27;3585635;-81
2023/07/02 05:18:51;;;;;;;;;32.60;26.20;;;;;;;;2049525;27;2824256;-82
2023/07/02 05:20:04;;;;;;;;;25.60;20.80;;;;;;;;2065779;27;3575224;-81
2023/07/02 05:21:17;;;;;;;;;28.50;18.00;;;;;;;;2035128;27;2848141;-81
2023/07/02 05:22:27;;;;;;;;;29.50;21.50;;;;;;;;2012077;27;2851282;-80
2023/07/02 05:23:40;;;;;;;;;27.29;22.43;;;;;;;;2041014;27;3587783;-80
2023/07/02 05:24:52;;;;;;;;;25.60;22.00;;;;;;;;2044639;27;3572103;-78
2023/07/02 05:26:04;;;;;;;;;24.80;21.20;;;;;;;;2027789;27;3577282;-78
2023/07/02 05:27:17;;;;;;;;;22.71;16.71;;;;;;;;2024919;27;3563772;-78
2023/07/02 05:28:30;;;;;;;;;28.29;24.71;;;;;;;;2037582;27;3583588;-78
2023/07/02 05:29:42;;;;;;;;;25.40;20.80;;;;;;;;2035055;27;3581472;-77
2023/07/02 05:30:54;;;;;;;;;30.60;18.80;;;;;;;;2031863;27;3601717;-77
2023/07/02 05:32:07;;;;;;;;;29.14;24.00;;;;;;;;2031130;27;3587783;-78
2023/07/02 05:33:19;;;;;;;;;31.20;23.60;;;;;;;;2044400;27;3590836;-78
2023/07/02 05:34:31;;;;;;;;;20.33;16.67;;;;;;;;2013891;27;3563774;-78
2023/07/02 05:35:42;;;;;;;;;24.60;21.00;;;;;;;;2048485;27;2838846;-79
2023/07/02 05:36:53;;;;;;;;;24.00;21.80;;;;;;;;2038678;27;3563756;-78
2023/07/02 05:38:05;;;;;;;;;18.80;17.60;;;;;;;;2066172;27;3553314;-79
2023/07/02 05:39:17;;;;;;;;;30.40;23.00;;;;;;;;2051202;28;3581484;-79
2023/07/02 05:40:30;;;;;;;;;24.00;19.86;;;;;;;;2028701;27;3551294;-81
2023/07/02 05:41:41;;;;;;;;;22.00;16.00;;;;;;;;2023258;27;2830909;-81
2023/07/02 05:42:53;;;;;;;;;23.14;17.29;;;;;;;;2023453;27;3541177;-80
2023/07/02 05:44:05;;;;;;;;;27.60;23.40;;;;;;;;2069040;27;3580407;-80
2023/07/02 05:45:18;;;;;;;;;29.60;21.40;;;;;;;;2035228;27;3599141;-80
2023/07/02 05:46:29;;;;;;;;;25.50;21.50;;;;;;;;2012147;27;2845037;-79
2023/07/02 05:47:41;;;;;;;;;24.40;21.00;;;;;;;;2044618;27;3585665;-79
2023/07/02 05:48:55;;;;;;;;;25.40;21.00;;;;;;;;2033368;27;3573160;-79
2023/07/02 05:50:07;;;;;;;;;26.00;18.67;;;;;;;;2016080;27;2857536;-79
2023/07/02 05:51:21;;;;;;;;;26.00;24.00;;;;;;;;2033821;27;2841884;-81
2023/07/02 05:52:32;;;;;;;;;23.00;20.00;;;;;;;;2010512;27;2824208;-81
2023/07/02 05:53:44;;;;;;;;;23.40;20.00;;;;;;;;2040138;27;3573101;-81
2023/07/02 05:54:55;;;;;;;;;28.20;24.20;;;;;;;;2040327;27;3592368;-80
2023/07/02 05:56:07;;;;;;;;;23.00;18.80;;;;;;;;2041788;27;3560606;-81
2023/07/02 05:57:19;;;;;;;;;26.60;24.00;;;;;;;;2068572;27;3577352;-80
2023/07/02 05:58:31;;;;;;;;;27.80;20.80;;;;;;;;2060508;27;3581462;-80
2023/07/02 05:59:43;;;;;;;;;28.40;22.40;;;;;;;;2037414;27;3573113;-79
2023/07/02 06:00:55;;;;;;;;;26.80;17.60;;;;;;;;2044006;27;3590823;-80
2023/07/02 06:02:07;;;;;;;;;29.80;22.00;;;;;;;;2040453;27;3593965;-80
2023/07/02 06:03:20;;;;;;;;;34.40;23.40;;;;;;;;2042185;27;3609613;-80
2023/07/02 06:04:30;;;;;;;;;26.50;20.00;;;;;;;;2016479;27;2834605;-81
2023/07/02 06:05:42;;;;;;;;;25.40;18.00;;;;;;;;2037190;27;3578377;-80
2023/07/02 06:06:54;;;;;;;;;27.00;20.20;;;;;;;;2038268;27;3576237;-81
2023/07/02 06:08:05;;;;;;;;;25.00;20.40;;;;;;;;2023652;27;2834612;-82
2023/07/02 06:09:18;;;;;;;;;23.14;21.57;;;;;;;;2055539;27;3579477;-81
2023/07/02 06:10:30;;;;;;;;;25.60;21.00;;;;;;;;2036576;27;3573152;-81
2023/07/02 06:11:42;;;;;;;;;19.40;18.40;;;;;;;;2039383;27;3562704;-83
2023/07/02 06:12:54;;;;;;;;;27.20;22.00;;;;;;;;2072356;27;3586638;-85
2023/07/02 06:14:06;;;;;;;;;23.80;18.80;;;;;;;;2035489;27;3575180;-84
2023/07/02 06:15:18;;;;;;;;;29.00;21.20;;;;;;;;2065668;27;3585596;-84
2023/07/02 06:16:29;;;;;;;;;21.00;18.00;;;;;;;;2025642;27;2833562;-85
2023/07/02 06:17:40;;;;;;;;;24.20;19.80;;;;;;;;2046732;27;3565853;-84
2023/07/02 06:18:52;;;;;;;;;26.80;20.80;;;;;;;;2068145;27;3582972;-81
2023/07/02 06:20:05;;;;;;;;;28.14;21.00;;;;;;;;2029527;27;3587700;-82
2023/07/02 06:21:17;;;;;;;;;22.33;18.67;;;;;;;;2008964;27;3575188;-79
2023/07/02 06:22:29;;;;;;;;;25.80;18.20;;;;;;;;2038616;27;3575188;-78
2023/07/02 06:23:41;;;;;;;;;25.80;19.20;;;;;;;;2061114;27;3579366;-78
2023/07/02 06:24:52;;;;;;;;;29.50;22.50;;;;;;;;2011382;27;2849179;-79
2023/07/02 06:26:04;;;;;;;;;23.40;21.80;;;;;;;;2043884;27;3585035;-79
2023/07/02 06:27:16;;;;;;;;;21.40;15.20;;;;;;;;2043077;27;3552273;-80
2023/07/02 06:28:28;;;;;;;;;28.00;22.60;;;;;;;;2068127;27;3577276;-81
2023/07/02 06:29:39;;;;;;;;;29.80;21.40;;;;;;;;2042337;27;3592937;-80
2023/07/02 06:30:50;;;;;;;;;26.80;23.40;;;;;;;;2024746;27;2843019;-80
2023/07/02 06:32:02;;;;;;;;;29.60;22.20;;;;;;;;2045044;27;3578361;-79
2023/07/02 06:33:14;;;;;;;;;31.20;21.80;;;;;;;;2063381;27;3593323;-80
2023/07/02 06:34:26;;;;;;;;;24.60;22.20;;;;;;;;2041796;27;3576233;-80
2023/07/02 06:35:38;;;;;;;;;25.43;21.86;;;;;;;;2027498;27;3573209;-80
2023/07/02 06:36:49;;;;;;;;;25.40;20.60;;;;;;;;2016447;27;2850303;-80
2023/07/02 06:38:01;;;;;;;;;25.67;17.00;;;;;;;;2038200;27;3590828;-79
2023/07/02 06:39:12;;;;;;;;;26.40;20.80;;;;;;;;2023901;27;2846151;-79
2023/07/02 06:40:23;;;;;;;;;20.40;17.20;;;;;;;;2029746;27;3564816;-80
2023/07/02 06:41:35;;;;;;;;;24.60;22.00;;;;;;;;2052185;27;3579378;-79
2023/07/02 06:42:47;;;;;;;;;28.33;19.33;;;;;;;;2024733;27;3595392;-79
2023/07/02 06:43:59;;;;;;;;;32.20;21.00;;;;;;;;2034069;27;3606453;-79
2023/07/02 06:45:11;;;;;;;;;25.40;24.00;;;;;;;;2035520;27;3583564;-79
2023/07/02 06:46:23;;;;;;;;;27.00;20.60;;;;;;;;2039349;27;3584586;-79